createdAt,value
2018-09-07T04:30:28.669Z,14.60
2018-09-07T04:32:56.863Z,14.70
2018-09-07T04:35:25.037Z,14.70
2018-09-07T04:37:53.109Z,14.70
2018-09-07T04:40:21.185Z,14.80
2018-09-07T04:42:49.050Z,14.80
2018-09-07T04:45:17.120Z,14.70
2018-09-07T04:47:45.232Z,14.70
2018-09-07T04:50:13.315Z,14.80
2018-09-07T04:52:46.522Z,14.80
2018-09-07T04:55:14.620Z,14.80
2018-09-07T04:57:42.718Z,14.90
2018-09-07T05:00:11.392Z,14.90
2018-09-07T05:02:39.480Z,14.90
2018-09-07T05:05:07.615Z,14.90
2018-09-07T05:07:35.718Z,15.00
2018-09-07T05:10:03.797Z,15.00
2018-09-07T05:12:31.900Z,15.10
2018-09-07T05:14:59.980Z,15.10
2018-09-07T05:17:28.081Z,15.10
2018-09-07T05:19:56.173Z,15.20
2018-09-07T05:22:24.280Z,15.30
2018-09-07T05:24:52.395Z,15.40
2018-09-07T05:27:20.488Z,15.50
2018-09-07T05:29:48.565Z,15.60
2018-09-07T05:32:16.675Z,15.70
2018-09-07T05:34:44.764Z,15.80
2018-09-07T05:37:13.204Z,15.80
2018-09-07T05:39:41.298Z,15.70
2018-09-07T05:42:09.384Z,15.80
2018-09-07T05:44:37.612Z,15.90
2018-09-07T05:47:05.688Z,16.00
2018-09-07T05:49:33.800Z,16.00
2018-09-07T05:52:01.891Z,16.00
2018-09-07T05:54:29.998Z,16.00
2018-09-07T05:56:58.069Z,16.10
2018-09-07T05:59:26.165Z,16.00
2018-09-07T06:01:54.244Z,16.00
2018-09-07T06:04:22.360Z,16.00
2018-09-07T06:06:50.592Z,15.90
2018-09-07T06:09:18.696Z,15.90
2018-09-07T06:11:46.784Z,15.90
2018-09-07T06:14:14.880Z,16.10
2018-09-07T06:16:42.980Z,16.10
2018-09-07T06:19:11.057Z,16.30
2018-09-07T06:21:39.150Z,16.40
2018-09-07T06:24:07.240Z,16.40
2018-09-07T06:26:35.315Z,16.40
2018-09-07T06:29:03.417Z,16.40
2018-09-07T06:31:31.730Z,16.20
2018-09-07T06:33:59.894Z,16.30
2018-09-07T06:36:28.020Z,16.30
2018-09-07T06:38:56.174Z,16.30
2018-09-07T06:41:24.188Z,16.10
2018-09-07T06:43:51.804Z,16.10
2018-09-07T14:14:57.943Z,20.90
2018-09-07T14:17:26.001Z,20.80
2018-09-07T14:19:54.146Z,20.80
2018-09-07T14:22:22.224Z,20.90
2018-09-07T14:24:50.344Z,20.90
2018-09-07T14:27:18.568Z,20.90
2018-09-07T14:29:46.660Z,20.90
2018-09-07T14:32:14.759Z,20.90
2018-09-07T14:34:42.831Z,21.00
2018-09-07T14:37:10.932Z,21.10
2018-09-07T14:39:39.135Z,20.90
2018-09-07T14:42:07.404Z,20.90
2018-09-07T14:44:35.512Z,20.80
2018-09-07T14:47:03.151Z,20.80
2018-09-07T14:49:31.245Z,20.70
2018-09-07T14:51:59.324Z,20.70
2018-09-07T14:54:27.769Z,20.70
2018-09-07T14:56:55.841Z,20.70
2018-09-07T14:59:23.945Z,20.80
2018-09-07T15:01:52.089Z,20.70
2018-09-07T15:04:20.165Z,20.70
2018-09-07T15:06:48.247Z,20.90
2018-09-07T15:09:16.337Z,20.80
2018-09-07T15:11:44.455Z,20.60
2018-09-07T15:14:12.589Z,20.50
2018-09-07T15:16:40.678Z,20.40
2018-09-07T15:19:08.752Z,20.40
2018-09-07T15:21:37.080Z,20.20
2018-09-07T15:24:05.180Z,20.10
2018-09-07T15:26:33.259Z,20.00
2018-09-07T15:29:01.336Z,20.00
2018-09-07T15:31:29.415Z,20.10
2018-09-07T15:33:57.516Z,20.10
2018-09-07T15:36:25.608Z,20.20
2018-09-07T15:38:53.681Z,20.30
2018-09-07T15:41:21.776Z,20.40
2018-09-07T15:43:49.856Z,20.30
2018-09-07T15:46:17.937Z,20.20
2018-09-07T15:48:46.484Z,20.10
2018-09-07T15:51:14.655Z,20.00
2018-09-07T15:53:42.727Z,19.90
2018-09-07T15:56:10.785Z,19.80
2018-09-07T15:58:38.871Z,19.70
2018-09-07T16:01:07.673Z,19.60
2018-09-07T16:03:35.756Z,19.60
2018-09-07T16:06:03.891Z,19.40
2018-09-07T16:08:31.964Z,19.50
2018-09-07T16:11:00.064Z,19.40
2018-09-07T16:13:28.156Z,19.40
2018-09-07T16:15:56.284Z,19.40
2018-09-07T16:18:24.393Z,19.30
2018-09-07T16:20:52.480Z,19.30
2018-09-07T16:23:20.581Z,19.20
2018-09-07T16:25:48.687Z,19.10
2018-09-07T16:28:16.757Z,19.00
2018-09-07T16:30:44.842Z,19.00
2018-09-07T16:33:12.915Z,18.90
2018-09-07T16:35:40.988Z,18.90
2018-09-07T16:38:09.076Z,18.80
2018-09-07T16:40:37.158Z,18.70
2018-09-07T16:43:05.268Z,18.60
2018-09-07T16:45:33.347Z,18.50
2018-09-07T16:48:01.427Z,18.40
2018-09-07T16:50:29.065Z,18.30
2018-09-07T16:52:57.172Z,18.20
2018-09-07T16:55:25.243Z,18.20
2018-09-07T16:57:53.320Z,18.10
2018-09-07T17:00:21.401Z,18.00
2018-09-07T17:02:49.520Z,17.90
2018-09-07T17:05:17.736Z,17.80
2018-09-07T17:07:45.801Z,17.70
2018-09-07T17:10:13.940Z,17.60
2018-09-07T17:12:42.102Z,17.60
2018-09-07T17:15:10.233Z,17.50
2018-09-07T17:17:38.520Z,17.50
2018-09-07T17:20:06.592Z,17.40
2018-09-07T17:22:34.988Z,17.30
2018-09-07T17:25:03.073Z,17.20
2018-09-07T17:27:31.203Z,17.20
2018-09-07T17:29:59.276Z,17.10
2018-09-07T17:32:27.593Z,17.00
2018-09-07T17:34:55.668Z,17.00
2018-09-07T17:37:23.752Z,16.90
2018-09-07T17:39:51.863Z,16.70
2018-09-07T17:42:19.941Z,16.70
2018-09-07T17:44:48.039Z,16.60
2018-09-07T17:47:16.141Z,16.50
2018-09-07T17:49:43.784Z,16.30
2018-09-07T17:52:11.872Z,16.30
2018-09-07T17:54:39.939Z,16.20
2018-09-07T17:57:08.169Z,16.10
2018-09-07T17:59:36.428Z,16.00
2018-09-07T18:02:04.702Z,15.90
2018-09-07T18:04:32.794Z,16.00
2018-09-07T18:07:00.868Z,15.90
2018-09-07T18:09:28.969Z,15.90
2018-09-07T18:11:57.044Z,15.90
2018-09-07T18:14:25.148Z,15.90
2018-09-07T18:16:53.256Z,15.80
2018-09-07T18:19:21.360Z,15.80
2018-09-07T18:21:50.468Z,15.70
2018-09-07T18:24:18.559Z,15.70
2018-09-07T18:26:46.646Z,15.80
2018-09-07T18:29:14.740Z,15.70
2018-09-07T18:31:42.850Z,15.60
2018-09-07T18:34:11.040Z,15.50
2018-09-07T18:36:39.125Z,15.40
2018-09-07T18:39:07.575Z,15.30
2018-09-07T18:41:35.817Z,15.30
2018-09-07T18:44:03.984Z,15.30
2018-09-07T18:46:32.211Z,15.20
2018-09-07T18:49:00.304Z,15.10
2018-09-07T18:51:28.106Z,15.00
2018-09-07T18:53:56.148Z,15.00
2018-09-07T18:56:24.502Z,14.90
2018-09-07T18:58:59.201Z,14.90
2018-09-07T19:01:27.364Z,14.80
2018-09-07T19:03:55.430Z,14.70
2018-09-07T19:06:23.512Z,14.70
2018-09-07T19:08:51.640Z,14.60
2018-09-07T19:11:19.756Z,14.50
2018-09-07T19:13:47.824Z,14.40
2018-09-07T19:16:15.904Z,14.40
2018-09-07T19:18:43.983Z,14.50
2018-09-07T19:21:12.076Z,14.50
2018-09-07T19:23:40.219Z,14.60
2018-09-07T19:26:08.251Z,14.60
2018-09-07T19:28:36.356Z,14.70
2018-09-07T19:31:04.461Z,14.70
2018-09-07T19:33:32.536Z,14.70
2018-09-07T19:36:00.644Z,14.80
2018-09-07T19:38:28.740Z,14.80
2018-09-07T19:40:56.825Z,14.70
2018-09-07T19:43:24.953Z,14.70
2018-09-07T19:45:53.036Z,14.70
2018-09-07T19:48:21.118Z,14.60
2018-09-07T19:50:48.801Z,14.50
2018-09-07T19:53:16.872Z,14.60
2018-09-07T19:55:44.971Z,14.60
2018-09-07T19:58:13.065Z,14.70
2018-09-07T20:00:41.159Z,14.70
2018-09-07T20:03:09.281Z,14.80
2018-09-07T20:05:37.436Z,14.80
2018-09-07T20:08:05.541Z,14.60
2018-09-07T20:10:33.621Z,14.50
2018-09-07T20:13:01.720Z,14.50
2018-09-07T20:15:29.816Z,14.30
2018-09-07T20:17:57.902Z,14.20
2018-09-07T20:20:25.984Z,14.20
2018-09-07T20:22:54.088Z,14.10
2018-09-07T20:25:22.197Z,14.10
2018-09-07T20:27:50.291Z,14.10
2018-09-07T20:30:18.466Z,14.30
2018-09-07T20:32:46.654Z,14.30
2018-09-07T20:35:14.637Z,14.40
2018-09-07T20:37:43.728Z,14.40
2018-09-07T20:40:11.809Z,14.30
2018-09-07T20:42:39.885Z,14.30
2018-09-07T20:45:09.662Z,14.30
2018-09-07T20:47:37.732Z,14.20
2018-09-07T20:50:05.988Z,14.20
2018-09-07T20:52:34.061Z,14.10
2018-09-07T20:55:02.429Z,14.10
2018-09-07T20:57:30.550Z,14.00
2018-09-07T20:59:58.610Z,14.00
2018-09-07T21:02:26.731Z,14.00
2018-09-07T21:04:54.816Z,13.90
2018-09-07T21:07:22.927Z,13.80
2018-09-07T21:09:51.164Z,13.70
2018-09-07T21:12:19.231Z,13.70
2018-09-07T21:14:47.449Z,13.60
2018-09-07T21:17:15.616Z,13.60
2018-09-07T21:19:43.834Z,13.60
2018-09-07T21:22:11.973Z,13.70
2018-09-07T21:24:40.108Z,13.70
2018-09-07T21:27:08.191Z,13.80
2018-09-07T21:29:36.280Z,13.70
2018-09-07T21:32:04.362Z,13.60
2018-09-07T21:34:32.611Z,13.60
2018-09-07T21:37:00.704Z,13.50
2018-09-07T21:39:29.745Z,13.40
2018-09-07T21:41:57.840Z,13.50
2018-09-07T21:44:25.943Z,13.50
2018-09-07T21:46:54.945Z,13.50
2018-09-07T21:49:23.020Z,13.50
2018-09-07T21:51:51.108Z,13.50
2018-09-07T21:54:19.181Z,13.60
2018-09-07T21:56:47.248Z,13.70
2018-09-07T21:59:15.408Z,13.80
2018-09-07T22:01:43.495Z,13.70
2018-09-07T22:04:11.588Z,13.50
2018-09-07T22:06:45.212Z,13.40
2018-09-07T22:09:13.284Z,13.40
2018-09-07T22:11:41.365Z,13.40
2018-09-07T22:14:09.679Z,13.30
2018-09-07T22:16:37.723Z,13.20
2018-09-07T22:19:05.809Z,13.20
2018-09-07T22:21:33.894Z,13.10
2018-09-07T22:24:01.965Z,13.10
2018-09-07T22:26:30.050Z,13.10
2018-09-07T22:28:58.133Z,13.00
2018-09-07T22:31:26.264Z,13.00
2018-09-07T22:33:54.284Z,13.00
2018-09-07T22:36:22.370Z,13.10
2018-09-07T22:38:50.460Z,13.00
2018-09-07T22:41:18.596Z,12.90
2018-09-07T22:43:46.668Z,12.90
2018-09-07T22:46:14.752Z,12.80
2018-09-07T22:48:44.143Z,12.70
2018-09-07T22:51:12.209Z,12.70
2018-09-07T22:53:40.291Z,12.70
2018-09-07T22:56:08.358Z,12.70
2018-09-07T22:58:36.513Z,12.80
2018-09-07T23:01:04.581Z,12.80
2018-09-07T23:03:32.668Z,12.80
2018-09-07T23:06:00.812Z,12.80
2018-09-07T23:08:28.902Z,12.80
2018-09-07T23:10:57.324Z,12.70
2018-09-07T23:13:26.069Z,12.70
2018-09-07T23:15:54.276Z,12.80
2018-09-07T23:18:22.376Z,12.70
2018-09-07T23:20:50.490Z,12.80
2018-09-07T23:23:18.564Z,12.90
2018-09-07T23:25:46.627Z,12.80
2018-09-07T23:28:14.708Z,13.00
